sensor_id;sensor_type;location;lat;lon;timestamp;P1;durP1;ratioP1;P2;durP2;ratioP2
10896;SDS011;5501;51.176;6.470;2023-11-21T00:04:07;7.70;;;5.72;;
10896;SDS011;5501;51.176;6.470;2023-11-21T00:09:09;10.23;;;6.05;;
10896;SDS011;5501;51.176;6.470;2023-11-21T00:14:11;8.75;;;5.47;;
10896;SDS011;5501;51.176;6.470;2023-11-21T00:19:12;15.18;;;5.75;;
10896;SDS011;5501;51.176;6.470;2023-11-21T00:24:14;9.27;;;5.78;;
10896;SDS011;5501;51.176;6.470;2023-11-21T00:29:16;9.85;;;6.00;;
10896;SDS011;5501;51.176;6.470;2023-11-21T00:34:18;17.20;;;5.65;;
10896;SDS011;5501;51.176;6.470;2023-11-21T00:39:21;9.20;;;5.45;;
10896;SDS011;5501;51.176;6.470;2023-11-21T00:44:22;9.35;;;5.60;;
10896;SDS011;5501;51.176;6.470;2023-11-21T00:49:24;16.55;;;6.78;;
10896;SDS011;5501;51.176;6.470;2023-11-21T00:54:26;11.40;;;6.47;;
10896;SDS011;5501;51.176;6.470;2023-11-21T00:59:28;10.20;;;6.85;;
10896;SDS011;5501;51.176;6.470;2023-11-21T01:04:30;10.23;;;6.72;;
10896;SDS011;5501;51.176;6.470;2023-11-21T01:09:33;11.35;;;7.00;;
10896;SDS011;5501;51.176;6.470;2023-11-21T01:14:35;11.75;;;7.68;;
10896;SDS011;5501;51.176;6.470;2023-11-21T01:19:38;23.33;;;7.47;;
10896;SDS011;5501;51.176;6.470;2023-11-21T01:24:39;17.38;;;8.35;;
10896;SDS011;5501;51.176;6.470;2023-11-21T01:29:41;12.73;;;8.35;;
10896;SDS011;5501;51.176;6.470;2023-11-21T01:34:43;12.43;;;8.23;;
10896;SDS011;5501;51.176;6.470;2023-11-21T01:39:45;14.68;;;8.48;;
10896;SDS011;5501;51.176;6.470;2023-11-21T01:44:49;13.23;;;7.53;;
10896;SDS011;5501;51.176;6.470;2023-11-21T01:49:50;17.55;;;8.77;;
10896;SDS011;5501;51.176;6.470;2023-11-21T01:54:52;13.00;;;8.02;;
10896;SDS011;5501;51.176;6.470;2023-11-21T01:59:54;14.50;;;8.63;;
10896;SDS011;5501;51.176;6.470;2023-11-21T02:04:57;18.15;;;8.75;;
10896;SDS011;5501;51.176;6.470;2023-11-21T02:09:59;16.02;;;8.40;;
10896;SDS011;5501;51.176;6.470;2023-11-21T02:15:03;16.98;;;8.85;;
10896;SDS011;5501;51.176;6.470;2023-11-21T02:20:11;14.25;;;7.78;;
10896;SDS011;5501;51.176;6.470;2023-11-21T02:25:17;19.50;;;7.93;;
10896;SDS011;5501;51.176;6.470;2023-11-21T02:30:19;16.88;;;7.97;;
10896;SDS011;5501;51.176;6.470;2023-11-21T02:35:20;13.25;;;7.43;;
10896;SDS011;5501;51.176;6.470;2023-11-21T02:40:22;11.75;;;7.43;;
10896;SDS011;5501;51.176;6.470;2023-11-21T02:45:26;14.45;;;8.07;;
10896;SDS011;5501;51.176;6.470;2023-11-21T02:50:27;13.00;;;7.18;;
10896;SDS011;5501;51.176;6.470;2023-11-21T02:55:29;12.30;;;7.25;;
10896;SDS011;5501;51.176;6.470;2023-11-21T03:00:32;15.82;;;7.40;;
10896;SDS011;5501;51.176;6.470;2023-11-21T03:05:33;15.20;;;8.15;;
10896;SDS011;5501;51.176;6.470;2023-11-21T03:10:36;17.63;;;8.30;;
10896;SDS011;5501;51.176;6.470;2023-11-21T03:15:38;16.35;;;7.72;;
10896;SDS011;5501;51.176;6.470;2023-11-21T03:20:40;12.82;;;7.35;;
10896;SDS011;5501;51.176;6.470;2023-11-21T03:25:42;15.85;;;8.23;;
10896;SDS011;5501;51.176;6.470;2023-11-21T03:30:44;15.90;;;9.32;;
10896;SDS011;5501;51.176;6.470;2023-11-21T03:35:45;20.50;;;8.32;;
10896;SDS011;5501;51.176;6.470;2023-11-21T03:40:47;14.27;;;7.53;;
10896;SDS011;5501;51.176;6.470;2023-11-21T03:45:49;14.80;;;8.65;;
10896;SDS011;5501;51.176;6.470;2023-11-21T03:50:51;15.55;;;8.57;;
10896;SDS011;5501;51.176;6.470;2023-11-21T03:55:52;15.02;;;8.80;;
10896;SDS011;5501;51.176;6.470;2023-11-21T04:00:54;14.90;;;8.55;;
10896;SDS011;5501;51.176;6.470;2023-11-21T04:05:55;14.88;;;8.43;;
10896;SDS011;5501;51.176;6.470;2023-11-21T04:10:57;14.25;;;9.02;;
10896;SDS011;5501;51.176;6.470;2023-11-21T04:15:59;20.33;;;9.13;;
10896;SDS011;5501;51.176;6.470;2023-11-21T04:21:05;17.40;;;9.70;;
10896;SDS011;5501;51.176;6.470;2023-11-21T04:26:07;21.63;;;10.05;;
10896;SDS011;5501;51.176;6.470;2023-11-21T04:31:08;20.23;;;10.02;;
10896;SDS011;5501;51.176;6.470;2023-11-21T04:36:10;19.90;;;10.40;;
10896;SDS011;5501;51.176;6.470;2023-11-21T04:41:11;22.45;;;11.45;;
10896;SDS011;5501;51.176;6.470;2023-11-21T04:46:13;20.35;;;10.13;;
10896;SDS011;5501;51.176;6.470;2023-11-21T04:51:14;19.77;;;10.52;;
10896;SDS011;5501;51.176;6.470;2023-11-21T04:56:16;19.30;;;10.73;;
10896;SDS011;5501;51.176;6.470;2023-11-21T05:01:17;20.70;;;9.93;;
10896;SDS011;5501;51.176;6.470;2023-11-21T05:06:19;20.98;;;10.90;;
10896;SDS011;5501;51.176;6.470;2023-11-21T05:11:27;16.88;;;9.85;;
10896;SDS011;5501;51.176;6.470;2023-11-21T05:16:30;25.25;;;11.75;;
10896;SDS011;5501;51.176;6.470;2023-11-21T05:21:31;22.08;;;10.82;;
10896;SDS011;5501;51.176;6.470;2023-11-21T05:26:33;23.23;;;9.93;;
10896;SDS011;5501;51.176;6.470;2023-11-21T05:31:35;23.52;;;11.80;;
10896;SDS011;5501;51.176;6.470;2023-11-21T05:36:37;22.77;;;10.77;;
10896;SDS011;5501;51.176;6.470;2023-11-21T05:41:38;24.88;;;12.55;;
10896;SDS011;5501;51.176;6.470;2023-11-21T05:46:40;24.88;;;11.63;;
10896;SDS011;5501;51.176;6.470;2023-11-21T05:51:43;28.60;;;11.73;;
10896;SDS011;5501;51.176;6.470;2023-11-21T05:56:46;22.13;;;12.85;;
10896;SDS011;5501;51.176;6.470;2023-11-21T06:01:48;22.80;;;10.23;;
10896;SDS011;5501;51.176;6.470;2023-11-21T06:06:50;25.58;;;13.38;;
10896;SDS011;5501;51.176;6.470;2023-11-21T06:11:53;27.35;;;11.55;;
10896;SDS011;5501;51.176;6.470;2023-11-21T06:16:55;24.48;;;12.90;;
10896;SDS011;5501;51.176;6.470;2023-11-21T06:21:58;23.63;;;11.45;;
10896;SDS011;5501;51.176;6.470;2023-11-21T06:26:59;28.17;;;12.40;;
10896;SDS011;5501;51.176;6.470;2023-11-21T06:32:01;29.23;;;14.10;;
10896;SDS011;5501;51.176;6.470;2023-11-21T06:37:06;25.23;;;12.90;;
10896;SDS011;5501;51.176;6.470;2023-11-21T06:42:07;27.08;;;12.98;;
10896;SDS011;5501;51.176;6.470;2023-11-21T06:47:09;25.67;;;13.48;;
10896;SDS011;5501;51.176;6.470;2023-11-21T06:52:11;28.65;;;12.82;;
10896;SDS011;5501;51.176;6.470;2023-11-21T06:57:12;31.30;;;13.52;;
10896;SDS011;5501;51.176;6.470;2023-11-21T07:02:14;27.15;;;13.07;;
10896;SDS011;5501;51.176;6.470;2023-11-21T07:07:16;35.15;;;13.93;;
10896;SDS011;5501;51.176;6.470;2023-11-21T07:12:17;27.17;;;13.23;;
10896;SDS011;5501;51.176;6.470;2023-11-21T07:17:19;31.73;;;12.98;;
10896;SDS011;5501;51.176;6.470;2023-11-21T07:22:21;33.60;;;13.20;;
10896;SDS011;5501;51.176;6.470;2023-11-21T07:27:23;32.13;;;12.63;;
10896;SDS011;5501;51.176;6.470;2023-11-21T07:32:24;33.42;;;13.15;;
10896;SDS011;5501;51.176;6.470;2023-11-21T07:37:26;31.30;;;14.40;;
10896;SDS011;5501;51.176;6.470;2023-11-21T07:42:31;37.53;;;13.98;;
10896;SDS011;5501;51.176;6.470;2023-11-21T07:47:33;27.13;;;12.77;;
10896;SDS011;5501;51.176;6.470;2023-11-21T07:52:35;35.30;;;13.48;;
10896;SDS011;5501;51.176;6.470;2023-11-21T07:57:37;28.52;;;11.68;;
10896;SDS011;5501;51.176;6.470;2023-11-21T08:02:39;30.25;;;11.48;;
10896;SDS011;5501;51.176;6.470;2023-11-21T08:07:43;29.33;;;12.35;;
10896;SDS011;5501;51.176;6.470;2023-11-21T08:12:45;24.10;;;10.98;;
10896;SDS011;5501;51.176;6.470;2023-11-21T08:17:47;32.88;;;13.35;;
10896;SDS011;5501;51.176;6.470;2023-11-21T08:22:49;32.42;;;11.38;;
10896;SDS011;5501;51.176;6.470;2023-11-21T08:27:51;35.15;;;12.63;;
10896;SDS011;5501;51.176;6.470;2023-11-21T08:32:52;30.00;;;13.13;;
10896;SDS011;5501;51.176;6.470;2023-11-21T08:37:55;31.50;;;12.38;;
10896;SDS011;5501;51.176;6.470;2023-11-21T08:42:56;36.45;;;13.52;;
10896;SDS011;5501;51.176;6.470;2023-11-21T08:48:00;34.72;;;12.95;;
10896;SDS011;5501;51.176;6.470;2023-11-21T08:53:02;28.63;;;12.82;;
10896;SDS011;5501;51.176;6.470;2023-11-21T08:58:04;35.72;;;12.50;;
10896;SDS011;5501;51.176;6.470;2023-11-21T09:03:06;39.95;;;15.30;;
10896;SDS011;5501;51.176;6.470;2023-11-21T09:08:10;30.45;;;11.82;;
10896;SDS011;5501;51.176;6.470;2023-11-21T09:13:12;32.67;;;14.65;;
10896;SDS011;5501;51.176;6.470;2023-11-21T09:18:13;36.72;;;13.93;;
10896;SDS011;5501;51.176;6.470;2023-11-21T09:23:15;35.83;;;14.15;;
10896;SDS011;5501;51.176;6.470;2023-11-21T09:28:17;46.05;;;13.20;;
10896;SDS011;5501;51.176;6.470;2023-11-21T09:33:19;39.50;;;13.32;;
10896;SDS011;5501;51.176;6.470;2023-11-21T09:38:21;30.58;;;13.32;;
10896;SDS011;5501;51.176;6.470;2023-11-21T09:43:23;37.30;;;13.32;;
10896;SDS011;5501;51.176;6.470;2023-11-21T09:48:29;34.88;;;12.23;;
10896;SDS011;5501;51.176;6.470;2023-11-21T09:53:31;29.77;;;11.68;;
10896;SDS011;5501;51.176;6.470;2023-11-21T09:58:35;33.05;;;11.65;;
10896;SDS011;5501;51.176;6.470;2023-11-21T10:03:36;30.50;;;11.45;;
10896;SDS011;5501;51.176;6.470;2023-11-21T10:08:40;28.73;;;11.93;;
10896;SDS011;5501;51.176;6.470;2023-11-21T10:13:54;32.22;;;12.05;;
10896;SDS011;5501;51.176;6.470;2023-11-21T10:18:56;26.75;;;11.68;;
10896;SDS011;5501;51.176;6.470;2023-11-21T10:24:11;23.33;;;10.57;;
10896;SDS011;5501;51.176;6.470;2023-11-21T10:29:13;30.17;;;11.10;;
10896;SDS011;5501;51.176;6.470;2023-11-21T10:34:18;23.13;;;11.00;;
10896;SDS011;5501;51.176;6.470;2023-11-21T10:39:21;26.90;;;11.13;;
10896;SDS011;5501;51.176;6.470;2023-11-21T10:44:24;21.17;;;9.00;;
10896;SDS011;5501;51.176;6.470;2023-11-21T10:49:27;27.02;;;10.05;;
10896;SDS011;5501;51.176;6.470;2023-11-21T10:54:29;19.92;;;9.13;;
10896;SDS011;5501;51.176;6.470;2023-11-21T10:59:31;23.80;;;9.40;;
10896;SDS011;5501;51.176;6.470;2023-11-21T11:04:34;15.30;;;7.53;;
10896;SDS011;5501;51.176;6.470;2023-11-21T11:09:39;15.60;;;7.95;;
10896;SDS011;5501;51.176;6.470;2023-11-21T11:14:41;14.40;;;7.28;;
10896;SDS011;5501;51.176;6.470;2023-11-21T11:19:44;14.90;;;8.27;;
10896;SDS011;5501;51.176;6.470;2023-11-21T11:41:03;16.52;;;7.35;;
10896;SDS011;5501;51.176;6.470;2023-11-21T11:46:06;18.52;;;6.65;;
10896;SDS011;5501;51.176;6.470;2023-11-21T12:01:33;15.77;;;6.40;;
10896;SDS011;5501;51.176;6.470;2023-11-21T12:06:35;16.00;;;7.15;;
10896;SDS011;5501;51.176;6.470;2023-11-21T12:11:37;15.50;;;6.75;;
10896;SDS011;5501;51.176;6.470;2023-11-21T12:16:38;12.45;;;6.43;;
10896;SDS011;5501;51.176;6.470;2023-11-21T12:21:40;15.98;;;6.75;;
10896;SDS011;5501;51.176;6.470;2023-11-21T12:26:42;16.20;;;7.35;;
10896;SDS011;5501;51.176;6.470;2023-11-21T12:31:45;13.27;;;6.82;;
10896;SDS011;5501;51.176;6.470;2023-11-21T12:36:47;12.50;;;6.82;;
10896;SDS011;5501;51.176;6.470;2023-11-21T12:41:50;14.82;;;7.70;;
10896;SDS011;5501;51.176;6.470;2023-11-21T12:46:52;15.38;;;7.53;;
10896;SDS011;5501;51.176;6.470;2023-11-21T12:51:54;13.85;;;6.60;;
10896;SDS011;5501;51.176;6.470;2023-11-21T12:56:59;15.27;;;7.28;;
10896;SDS011;5501;51.176;6.470;2023-11-21T13:02:01;17.45;;;7.22;;
10896;SDS011;5501;51.176;6.470;2023-11-21T13:07:06;14.60;;;6.68;;
10896;SDS011;5501;51.176;6.470;2023-11-21T13:12:15;12.45;;;7.13;;
10896;SDS011;5501;51.176;6.470;2023-11-21T13:17:19;11.02;;;6.15;;
10896;SDS011;5501;51.176;6.470;2023-11-21T13:22:24;14.70;;;6.35;;
10896;SDS011;5501;51.176;6.470;2023-11-21T13:27:26;11.88;;;6.40;;
10896;SDS011;5501;51.176;6.470;2023-11-21T13:32:27;15.75;;;6.60;;
10896;SDS011;5501;51.176;6.470;2023-11-21T13:37:30;14.68;;;5.18;;
10896;SDS011;5501;51.176;6.470;2023-11-21T13:42:33;8.68;;;5.55;;
10896;SDS011;5501;51.176;6.470;2023-11-21T13:47:34;15.40;;;6.97;;
10896;SDS011;5501;51.176;6.470;2023-11-21T13:52:37;15.57;;;6.13;;
10896;SDS011;5501;51.176;6.470;2023-11-21T13:57:40;15.00;;;7.50;;
10896;SDS011;5501;51.176;6.470;2023-11-21T14:02:44;14.65;;;6.85;;
10896;SDS011;5501;51.176;6.470;2023-11-21T14:07:46;17.45;;;6.60;;
10896;SDS011;5501;51.176;6.470;2023-11-21T14:12:50;11.80;;;6.85;;
10896;SDS011;5501;51.176;6.470;2023-11-21T14:17:51;20.90;;;8.25;;
10896;SDS011;5501;51.176;6.470;2023-11-21T14:22:53;13.88;;;8.13;;
10896;SDS011;5501;51.176;6.470;2023-11-21T14:27:55;21.35;;;8.63;;
10896;SDS011;5501;51.176;6.470;2023-11-21T14:33:00;18.67;;;9.30;;
10896;SDS011;5501;51.176;6.470;2023-11-21T14:38:03;17.70;;;8.38;;
10896;SDS011;5501;51.176;6.470;2023-11-21T14:43:06;14.95;;;7.88;;
10896;SDS011;5501;51.176;6.470;2023-11-21T14:48:07;16.35;;;7.93;;
10896;SDS011;5501;51.176;6.470;2023-11-21T14:53:17;17.63;;;8.10;;
10896;SDS011;5501;51.176;6.470;2023-11-21T14:58:36;17.33;;;8.43;;
10896;SDS011;5501;51.176;6.470;2023-11-21T15:03:39;17.80;;;8.20;;
10896;SDS011;5501;51.176;6.470;2023-11-21T15:08:52;14.90;;;8.80;;
10896;SDS011;5501;51.176;6.470;2023-11-21T15:14:20;16.85;;;8.32;;
10896;SDS011;5501;51.176;6.470;2023-11-21T15:19:26;11.70;;;7.22;;
10896;SDS011;5501;51.176;6.470;2023-11-21T15:24:29;14.95;;;8.68;;
10896;SDS011;5501;51.176;6.470;2023-11-21T15:29:30;12.40;;;7.75;;
10896;SDS011;5501;51.176;6.470;2023-11-21T15:34:32;22.95;;;9.10;;
10896;SDS011;5501;51.176;6.470;2023-11-21T15:39:34;17.60;;;8.20;;
10896;SDS011;5501;51.176;6.470;2023-11-21T15:44:36;14.27;;;7.82;;
10896;SDS011;5501;51.176;6.470;2023-11-21T15:49:38;12.98;;;7.68;;
10896;SDS011;5501;51.176;6.470;2023-11-21T15:54:40;13.50;;;8.18;;
10896;SDS011;5501;51.176;6.470;2023-11-21T15:59:41;14.18;;;8.23;;
10896;SDS011;5501;51.176;6.470;2023-11-21T16:04:46;17.13;;;8.65;;
10896;SDS011;5501;51.176;6.470;2023-11-21T16:09:47;14.90;;;8.77;;
10896;SDS011;5501;51.176;6.470;2023-11-21T16:14:49;18.42;;;8.27;;
10896;SDS011;5501;51.176;6.470;2023-11-21T16:19:51;14.95;;;8.07;;
10896;SDS011;5501;51.176;6.470;2023-11-21T16:24:53;14.50;;;7.72;;
10896;SDS011;5501;51.176;6.470;2023-11-21T16:29:55;18.15;;;9.43;;
10896;SDS011;5501;51.176;6.470;2023-11-21T16:34:57;16.67;;;8.27;;
10896;SDS011;5501;51.176;6.470;2023-11-21T16:40:01;14.63;;;8.07;;
10896;SDS011;5501;51.176;6.470;2023-11-21T16:45:02;12.90;;;8.65;;
10896;SDS011;5501;51.176;6.470;2023-11-21T16:50:04;10.07;;;6.95;;
10896;SDS011;5501;51.176;6.470;2023-11-21T16:55:06;14.38;;;6.63;;
10896;SDS011;5501;51.176;6.470;2023-11-21T17:00:10;13.77;;;6.30;;
10896;SDS011;5501;51.176;6.470;2023-11-21T17:05:13;12.00;;;5.80;;
10896;SDS011;5501;51.176;6.470;2023-11-21T17:10:15;11.20;;;6.28;;
10896;SDS011;5501;51.176;6.470;2023-11-21T17:15:17;9.07;;;5.10;;
10896;SDS011;5501;51.176;6.470;2023-11-21T17:20:20;14.40;;;6.82;;
10896;SDS011;5501;51.176;6.470;2023-11-21T17:25:21;9.38;;;6.47;;
10896;SDS011;5501;51.176;6.470;2023-11-21T17:30:23;8.23;;;5.97;;
10896;SDS011;5501;51.176;6.470;2023-11-21T17:35:25;14.35;;;7.35;;
10896;SDS011;5501;51.176;6.470;2023-11-21T17:40:26;13.35;;;7.68;;
10896;SDS011;5501;51.176;6.470;2023-11-21T17:45:29;12.55;;;8.00;;
10896;SDS011;5501;51.176;6.470;2023-11-21T17:50:31;16.02;;;9.65;;
10896;SDS011;5501;51.176;6.470;2023-11-21T17:55:33;15.10;;;9.32;;
10896;SDS011;5501;51.176;6.470;2023-11-21T18:00:35;12.85;;;8.88;;
10896;SDS011;5501;51.176;6.470;2023-11-21T18:05:37;14.00;;;9.27;;
10896;SDS011;5501;51.176;6.470;2023-11-21T18:10:39;17.00;;;8.60;;
10896;SDS011;5501;51.176;6.470;2023-11-21T18:15:40;11.63;;;7.20;;
10896;SDS011;5501;51.176;6.470;2023-11-21T18:20:42;13.00;;;7.38;;
10896;SDS011;5501;51.176;6.470;2023-11-21T18:25:44;11.95;;;7.72;;
10896;SDS011;5501;51.176;6.470;2023-11-21T18:30:46;11.18;;;7.78;;
10896;SDS011;5501;51.176;6.470;2023-11-21T18:35:49;12.10;;;7.88;;
10896;SDS011;5501;51.176;6.470;2023-11-21T18:40:51;12.15;;;8.02;;
10896;SDS011;5501;51.176;6.470;2023-11-21T18:45:53;11.48;;;9.07;;
10896;SDS011;5501;51.176;6.470;2023-11-21T18:50:56;11.77;;;7.22;;
10896;SDS011;5501;51.176;6.470;2023-11-21T18:55:57;11.93;;;7.50;;
10896;SDS011;5501;51.176;6.470;2023-11-21T19:00:59;11.18;;;6.95;;
10896;SDS011;5501;51.176;6.470;2023-11-21T19:06:00;11.02;;;6.20;;
10896;SDS011;5501;51.176;6.470;2023-11-21T19:11:02;8.73;;;6.18;;
10896;SDS011;5501;51.176;6.470;2023-11-21T19:16:04;6.65;;;4.70;;
10896;SDS011;5501;51.176;6.470;2023-11-21T19:21:11;5.97;;;4.30;;
10896;SDS011;5501;51.176;6.470;2023-11-21T19:26:14;7.68;;;4.63;;
10896;SDS011;5501;51.176;6.470;2023-11-21T19:31:20;8.10;;;4.53;;
10896;SDS011;5501;51.176;6.470;2023-11-21T19:36:22;8.30;;;4.80;;
10896;SDS011;5501;51.176;6.470;2023-11-21T19:41:24;6.15;;;4.70;;
10896;SDS011;5501;51.176;6.470;2023-11-21T19:46:27;6.60;;;4.25;;
10896;SDS011;5501;51.176;6.470;2023-11-21T19:51:28;6.20;;;4.13;;
10896;SDS011;5501;51.176;6.470;2023-11-21T19:56:30;5.93;;;3.97;;
10896;SDS011;5501;51.176;6.470;2023-11-21T20:01:32;6.38;;;4.32;;
10896;SDS011;5501;51.176;6.470;2023-11-21T20:06:37;8.55;;;4.80;;
10896;SDS011;5501;51.176;6.470;2023-11-21T20:11:49;5.93;;;4.00;;
10896;SDS011;5501;51.176;6.470;2023-11-21T20:16:52;6.50;;;3.85;;
10896;SDS011;5501;51.176;6.470;2023-11-21T20:21:57;6.45;;;4.75;;
10896;SDS011;5501;51.176;6.470;2023-11-21T20:26:59;6.28;;;4.30;;
10896;SDS011;5501;51.176;6.470;2023-11-21T20:32:00;8.60;;;4.35;;
10896;SDS011;5501;51.176;6.470;2023-11-21T20:37:02;6.93;;;4.75;;
10896;SDS011;5501;51.176;6.470;2023-11-21T20:42:05;5.63;;;4.80;;
10896;SDS011;5501;51.176;6.470;2023-11-21T20:47:07;6.85;;;4.22;;
10896;SDS011;5501;51.176;6.470;2023-11-21T20:52:13;6.38;;;4.72;;
10896;SDS011;5501;51.176;6.470;2023-11-21T20:57:14;8.98;;;4.97;;
10896;SDS011;5501;51.176;6.470;2023-11-21T21:02:16;12.40;;;6.05;;
10896;SDS011;5501;51.176;6.470;2023-11-21T21:07:18;7.35;;;4.72;;
10896;SDS011;5501;51.176;6.470;2023-11-21T21:12:20;9.80;;;5.22;;
10896;SDS011;5501;51.176;6.470;2023-11-21T21:17:21;6.38;;;4.50;;
10896;SDS011;5501;51.176;6.470;2023-11-21T21:22:23;8.52;;;5.78;;
10896;SDS011;5501;51.176;6.470;2023-11-21T21:27:25;7.75;;;5.30;;
10896;SDS011;5501;51.176;6.470;2023-11-21T21:32:27;11.07;;;5.50;;
10896;SDS011;5501;51.176;6.470;2023-11-21T21:37:28;10.77;;;5.80;;
10896;SDS011;5501;51.176;6.470;2023-11-21T21:42:30;8.65;;;5.50;;
10896;SDS011;5501;51.176;6.470;2023-11-21T21:47:32;12.18;;;6.47;;
10896;SDS011;5501;51.176;6.470;2023-11-21T21:52:34;9.32;;;6.35;;
10896;SDS011;5501;51.176;6.470;2023-11-21T21:57:37;8.38;;;6.05;;
10896;SDS011;5501;51.176;6.470;2023-11-21T22:02:41;10.90;;;6.63;;
10896;SDS011;5501;51.176;6.470;2023-11-21T22:07:44;9.50;;;6.18;;
10896;SDS011;5501;51.176;6.470;2023-11-21T22:12:45;11.65;;;6.47;;
10896;SDS011;5501;51.176;6.470;2023-11-21T22:17:47;9.43;;;6.53;;
10896;SDS011;5501;51.176;6.470;2023-11-21T22:22:51;10.32;;;5.93;;
10896;SDS011;5501;51.176;6.470;2023-11-21T22:27:53;12.00;;;6.45;;
10896;SDS011;5501;51.176;6.470;2023-11-21T22:32:54;8.55;;;5.88;;
10896;SDS011;5501;51.176;6.470;2023-11-21T22:37:59;7.90;;;6.07;;
10896;SDS011;5501;51.176;6.470;2023-11-21T22:43:01;10.48;;;6.72;;
10896;SDS011;5501;51.176;6.470;2023-11-21T22:48:02;9.18;;;5.75;;
10896;SDS011;5501;51.176;6.470;2023-11-21T22:53:04;11.55;;;6.38;;
10896;SDS011;5501;51.176;6.470;2023-11-21T22:58:06;8.73;;;6.65;;
10896;SDS011;5501;51.176;6.470;2023-11-21T23:03:08;11.80;;;6.25;;
10896;SDS011;5501;51.176;6.470;2023-11-21T23:08:10;11.02;;;6.13;;
10896;SDS011;5501;51.176;6.470;2023-11-21T23:13:12;13.77;;;7.15;;
10896;SDS011;5501;51.176;6.470;2023-11-21T23:18:14;13.50;;;6.88;;
10896;SDS011;5501;51.176;6.470;2023-11-21T23:23:16;11.80;;;7.05;;
10896;SDS011;5501;51.176;6.470;2023-11-21T23:28:18;11.18;;;7.68;;
10896;SDS011;5501;51.176;6.470;2023-11-21T23:33:20;10.27;;;6.80;;
10896;SDS011;5501;51.176;6.470;2023-11-21T23:38:22;16.08;;;8.07;;
10896;SDS011;5501;51.176;6.470;2023-11-21T23:43:24;10.65;;;6.32;;
10896;SDS011;5501;51.176;6.470;2023-11-21T23:48:28;14.43;;;7.45;;
10896;SDS011;5501;51.176;6.470;2023-11-21T23:53:29;11.75;;;7.30;;
10896;SDS011;5501;51.176;6.470;2023-11-21T23:58:31;15.52;;;7.70;;
